sensor_id;sensor_type;location;lat;lon;timestamp;temperature;humidity
68766;DHT22;55756;45.582;11.484;2022-10-16T00:01:17;18.70;74.40
68766;DHT22;55756;45.582;11.484;2022-10-16T00:03:44;18.70;74.70
68766;DHT22;55756;45.582;11.484;2022-10-16T00:06:10;18.70;74.80
68766;DHT22;55756;45.582;11.484;2022-10-16T00:08:36;18.70;74.80
68766;DHT22;55756;45.582;11.484;2022-10-16T00:11:04;18.70;74.90
68766;DHT22;55756;45.582;11.484;2022-10-16T00:13:30;18.70;75.00
68766;DHT22;55756;45.582;11.484;2022-10-16T00:15:57;18.70;75.10
68766;DHT22;55756;45.582;11.484;2022-10-16T00:18:23;18.60;75.00
68766;DHT22;55756;45.582;11.484;2022-10-16T00:20:49;18.60;74.70
68766;DHT22;55756;45.582;11.484;2022-10-16T00:23:15;18.60;74.70
68766;DHT22;55756;45.582;11.484;2022-10-16T00:25:41;18.60;74.70
68766;DHT22;55756;45.582;11.484;2022-10-16T00:28:06;18.50;74.70
68766;DHT22;55756;45.582;11.484;2022-10-16T00:30:32;18.60;74.60
68766;DHT22;55756;45.582;11.484;2022-10-16T00:32:58;18.60;74.50
68766;DHT22;55756;45.582;11.484;2022-10-16T00:35:23;18.50;74.70
68766;DHT22;55756;45.582;11.484;2022-10-16T00:37:49;18.50;74.70
68766;DHT22;55756;45.582;11.484;2022-10-16T00:40:15;18.50;74.70
68766;DHT22;55756;45.582;11.484;2022-10-16T00:42:41;18.50;74.70
68766;DHT22;55756;45.582;11.484;2022-10-16T00:45:07;18.50;74.90
68766;DHT22;55756;45.582;11.484;2022-10-16T00:47:34;18.50;75.10
68766;DHT22;55756;45.582;11.484;2022-10-16T00:50:09;18.60;75.00
68766;DHT22;55756;45.582;11.484;2022-10-16T00:52:36;18.50;75.10
68766;DHT22;55756;45.582;11.484;2022-10-16T00:55:02;18.50;75.30
68766;DHT22;55756;45.582;11.484;2022-10-16T00:57:28;18.50;75.30
68766;DHT22;55756;45.582;11.484;2022-10-16T00:59:54;18.50;75.50
68766;DHT22;55756;45.582;11.484;2022-10-16T01:02:20;18.50;75.50
68766;DHT22;55756;45.582;11.484;2022-10-16T01:04:47;18.40;75.60
68766;DHT22;55756;45.582;11.484;2022-10-16T01:12:45;18.40;76.00
68766;DHT22;55756;45.582;11.484;2022-10-16T01:15:26;18.30;76.20
68766;DHT22;55756;45.582;11.484;2022-10-16T01:17:56;18.40;76.20
68766;DHT22;55756;45.582;11.484;2022-10-16T01:20:37;18.40;76.30
68766;DHT22;55756;45.582;11.484;2022-10-16T01:28:28;18.20;76.50
68766;DHT22;55756;45.582;11.484;2022-10-16T01:30:58;18.20;76.70
68766;DHT22;55756;45.582;11.484;2022-10-16T01:33:27;18.00;76.90
68766;DHT22;55756;45.582;11.484;2022-10-16T01:35:58;18.00;77.10
68766;DHT22;55756;45.582;11.484;2022-10-16T01:38:35;17.90;77.30
68766;DHT22;55756;45.582;11.484;2022-10-16T01:41:13;17.80;77.60
68766;DHT22;55756;45.582;11.484;2022-10-16T01:43:43;17.70;77.70
68766;DHT22;55756;45.582;11.484;2022-10-16T01:46:14;17.70;77.80
68766;DHT22;55756;45.582;11.484;2022-10-16T01:48:42;17.70;78.00
68766;DHT22;55756;45.582;11.484;2022-10-16T01:51:14;17.70;77.90
68766;DHT22;55756;45.582;11.484;2022-10-16T01:53:40;17.70;77.90
68766;DHT22;55756;45.582;11.484;2022-10-16T01:56:08;17.70;77.90
68766;DHT22;55756;45.582;11.484;2022-10-16T01:58:35;17.80;77.90
68766;DHT22;55756;45.582;11.484;2022-10-16T02:01:03;17.80;77.80
68766;DHT22;55756;45.582;11.484;2022-10-16T02:03:30;17.80;77.80
68766;DHT22;55756;45.582;11.484;2022-10-16T02:05:57;17.80;77.70
68766;DHT22;55756;45.582;11.484;2022-10-16T02:08:24;17.80;77.60
68766;DHT22;55756;45.582;11.484;2022-10-16T02:10:51;17.80;77.50
68766;DHT22;55756;45.582;11.484;2022-10-16T02:13:19;17.80;77.60
68766;DHT22;55756;45.582;11.484;2022-10-16T02:15:47;17.80;77.60
68766;DHT22;55756;45.582;11.484;2022-10-16T02:18:13;17.80;77.60
68766;DHT22;55756;45.582;11.484;2022-10-16T02:20:42;17.80;77.60
68766;DHT22;55756;45.582;11.484;2022-10-16T02:23:10;17.80;77.70
68766;DHT22;55756;45.582;11.484;2022-10-16T02:25:40;17.70;77.90
68766;DHT22;55756;45.582;11.484;2022-10-16T02:28:12;17.70;77.90
68766;DHT22;55756;45.582;11.484;2022-10-16T02:30:46;17.70;78.10
68766;DHT22;55756;45.582;11.484;2022-10-16T02:33:14;17.70;78.00
68766;DHT22;55756;45.582;11.484;2022-10-16T02:35:41;17.70;78.10
68766;DHT22;55756;45.582;11.484;2022-10-16T02:38:09;17.70;78.30
68766;DHT22;55756;45.582;11.484;2022-10-16T02:40:35;17.70;78.30
68766;DHT22;55756;45.582;11.484;2022-10-16T02:43:02;17.70;78.30
68766;DHT22;55756;45.582;11.484;2022-10-16T02:45:28;17.70;78.40
68766;DHT22;55756;45.582;11.484;2022-10-16T02:47:54;17.60;78.50
68766;DHT22;55756;45.582;11.484;2022-10-16T02:50:20;17.60;78.50
68766;DHT22;55756;45.582;11.484;2022-10-16T02:52:46;17.70;78.50
68766;DHT22;55756;45.582;11.484;2022-10-16T02:55:11;17.60;78.60
68766;DHT22;55756;45.582;11.484;2022-10-16T02:57:37;17.60;78.70
68766;DHT22;55756;45.582;11.484;2022-10-16T03:00:04;17.60;78.80
68766;DHT22;55756;45.582;11.484;2022-10-16T03:02:30;17.60;78.80
68766;DHT22;55756;45.582;11.484;2022-10-16T03:04:55;17.50;79.00
68766;DHT22;55756;45.582;11.484;2022-10-16T03:07:21;17.60;78.90
68766;DHT22;55756;45.582;11.484;2022-10-16T03:09:47;17.60;78.80
68766;DHT22;55756;45.582;11.484;2022-10-16T03:12:12;17.50;78.90
68766;DHT22;55756;45.582;11.484;2022-10-16T03:14:38;17.50;78.90
68766;DHT22;55756;45.582;11.484;2022-10-16T03:17:05;17.60;78.60
68766;DHT22;55756;45.582;11.484;2022-10-16T03:19:31;17.60;78.50
68766;DHT22;55756;45.582;11.484;2022-10-16T03:21:56;17.50;78.60
68766;DHT22;55756;45.582;11.484;2022-10-16T03:24:22;17.60;78.60
68766;DHT22;55756;45.582;11.484;2022-10-16T03:26:48;17.60;78.40
68766;DHT22;55756;45.582;11.484;2022-10-16T03:29:14;17.50;78.30
68766;DHT22;55756;45.582;11.484;2022-10-16T03:31:39;17.60;78.40
68766;DHT22;55756;45.582;11.484;2022-10-16T03:34:05;17.50;78.30
68766;DHT22;55756;45.582;11.484;2022-10-16T03:36:31;17.50;78.40
68766;DHT22;55756;45.582;11.484;2022-10-16T03:38:56;17.50;78.40
68766;DHT22;55756;45.582;11.484;2022-10-16T03:41:22;17.40;78.50
68766;DHT22;55756;45.582;11.484;2022-10-16T03:43:48;17.40;78.70
68766;DHT22;55756;45.582;11.484;2022-10-16T03:46:13;17.30;78.90
68766;DHT22;55756;45.582;11.484;2022-10-16T03:48:39;17.20;79.10
68766;DHT22;55756;45.582;11.484;2022-10-16T03:51:05;17.20;79.20
68766;DHT22;55756;45.582;11.484;2022-10-16T03:53:31;17.20;79.30
68766;DHT22;55756;45.582;11.484;2022-10-16T03:55:56;17.20;79.20
68766;DHT22;55756;45.582;11.484;2022-10-16T03:58:22;17.10;79.40
68766;DHT22;55756;45.582;11.484;2022-10-16T04:00:48;17.00;79.80
68766;DHT22;55756;45.582;11.484;2022-10-16T04:03:13;17.00;79.90
68766;DHT22;55756;45.582;11.484;2022-10-16T04:05:39;17.00;80.00
68766;DHT22;55756;45.582;11.484;2022-10-16T04:08:05;16.90;79.90
68766;DHT22;55756;45.582;11.484;2022-10-16T04:10:31;16.90;80.10
68766;DHT22;55756;45.582;11.484;2022-10-16T04:12:57;16.80;80.10
68766;DHT22;55756;45.582;11.484;2022-10-16T04:15:23;16.80;80.20
68766;DHT22;55756;45.582;11.484;2022-10-16T04:17:50;16.80;80.20
68766;DHT22;55756;45.582;11.484;2022-10-16T04:20:16;16.80;80.10
68766;DHT22;55756;45.582;11.484;2022-10-16T04:22:42;16.80;80.00
68766;DHT22;55756;45.582;11.484;2022-10-16T04:25:08;16.80;80.00
68766;DHT22;55756;45.582;11.484;2022-10-16T04:27:34;16.80;80.00
68766;DHT22;55756;45.582;11.484;2022-10-16T04:29:59;16.70;80.10
68766;DHT22;55756;45.582;11.484;2022-10-16T04:32:26;16.70;80.20
68766;DHT22;55756;45.582;11.484;2022-10-16T04:34:52;16.70;80.30
68766;DHT22;55756;45.582;11.484;2022-10-16T04:37:18;16.70;80.40
68766;DHT22;55756;45.582;11.484;2022-10-16T04:39:44;16.70;80.20
68766;DHT22;55756;45.582;11.484;2022-10-16T04:42:10;16.60;80.20
68766;DHT22;55756;45.582;11.484;2022-10-16T04:44:36;16.60;80.50
68766;DHT22;55756;45.582;11.484;2022-10-16T04:47:01;16.60;80.70
68766;DHT22;55756;45.582;11.484;2022-10-16T04:49:27;16.60;80.60
68766;DHT22;55756;45.582;11.484;2022-10-16T04:51:53;16.70;80.60
68766;DHT22;55756;45.582;11.484;2022-10-16T04:54:18;16.70;80.60
68766;DHT22;55756;45.582;11.484;2022-10-16T04:56:44;16.70;80.70
68766;DHT22;55756;45.582;11.484;2022-10-16T04:59:14;16.70;80.60
68766;DHT22;55756;45.582;11.484;2022-10-16T05:01:39;16.70;80.70
68766;DHT22;55756;45.582;11.484;2022-10-16T05:04:05;16.70;80.60
68766;DHT22;55756;45.582;11.484;2022-10-16T05:06:31;16.80;80.60
68766;DHT22;55756;45.582;11.484;2022-10-16T05:08:56;16.80;80.60
68766;DHT22;55756;45.582;11.484;2022-10-16T05:11:22;16.70;80.70
68766;DHT22;55756;45.582;11.484;2022-10-16T05:13:48;16.80;80.50
68766;DHT22;55756;45.582;11.484;2022-10-16T05:16:13;16.80;80.50
68766;DHT22;55756;45.582;11.484;2022-10-16T05:18:39;16.80;80.40
68766;DHT22;55756;45.582;11.484;2022-10-16T05:21:05;16.80;80.50
68766;DHT22;55756;45.582;11.484;2022-10-16T05:23:31;16.80;80.50
68766;DHT22;55756;45.582;11.484;2022-10-16T05:25:57;16.80;80.50
68766;DHT22;55756;45.582;11.484;2022-10-16T05:28:24;16.90;80.20
68766;DHT22;55756;45.582;11.484;2022-10-16T05:30:50;16.80;80.40
68766;DHT22;55756;45.582;11.484;2022-10-16T05:33:16;16.80;80.50
68766;DHT22;55756;45.582;11.484;2022-10-16T05:35:41;16.90;80.50
68766;DHT22;55756;45.582;11.484;2022-10-16T05:38:07;16.90;80.30
68766;DHT22;55756;45.582;11.484;2022-10-16T05:40:33;16.90;80.30
68766;DHT22;55756;45.582;11.484;2022-10-16T05:42:59;16.80;80.30
68766;DHT22;55756;45.582;11.484;2022-10-16T05:45:24;16.80;80.50
68766;DHT22;55756;45.582;11.484;2022-10-16T05:47:50;16.80;80.50
68766;DHT22;55756;45.582;11.484;2022-10-16T05:50:16;16.80;80.60
68766;DHT22;55756;45.582;11.484;2022-10-16T05:52:42;16.70;80.70
68766;DHT22;55756;45.582;11.484;2022-10-16T05:55:08;16.70;80.50
68766;DHT22;55756;45.582;11.484;2022-10-16T05:57:33;16.80;80.50
68766;DHT22;55756;45.582;11.484;2022-10-16T05:59:59;16.80;80.50
68766;DHT22;55756;45.582;11.484;2022-10-16T06:02:25;16.80;80.40
68766;DHT22;55756;45.582;11.484;2022-10-16T06:04:53;16.90;80.40
68766;DHT22;55756;45.582;11.484;2022-10-16T06:07:19;16.90;80.20
68766;DHT22;55756;45.582;11.484;2022-10-16T06:09:47;17.00;80.20
68766;DHT22;55756;45.582;11.484;2022-10-16T06:12:13;17.00;80.20
68766;DHT22;55756;45.582;11.484;2022-10-16T06:14:39;17.00;80.20
68766;DHT22;55756;45.582;11.484;2022-10-16T06:17:04;17.00;80.10
68766;DHT22;55756;45.582;11.484;2022-10-16T06:19:31;17.10;80.10
68766;DHT22;55756;45.582;11.484;2022-10-16T06:21:57;17.20;80.00
68766;DHT22;55756;45.582;11.484;2022-10-16T06:24:24;17.20;80.00
68766;DHT22;55756;45.582;11.484;2022-10-16T06:26:49;17.30;79.80
68766;DHT22;55756;45.582;11.484;2022-10-16T06:29:15;17.40;79.60
68766;DHT22;55756;45.582;11.484;2022-10-16T06:31:41;17.40;79.40
68766;DHT22;55756;45.582;11.484;2022-10-16T06:34:08;17.50;79.30
68766;DHT22;55756;45.582;11.484;2022-10-16T06:36:36;17.60;78.90
68766;DHT22;55756;45.582;11.484;2022-10-16T06:39:02;17.60;78.90
68766;DHT22;55756;45.582;11.484;2022-10-16T06:41:28;17.70;78.30
68766;DHT22;55756;45.582;11.484;2022-10-16T06:43:55;17.80;78.10
68766;DHT22;55756;45.582;11.484;2022-10-16T06:46:22;17.80;77.80
68766;DHT22;55756;45.582;11.484;2022-10-16T06:48:48;18.00;77.50
68766;DHT22;55756;45.582;11.484;2022-10-16T06:51:15;18.00;77.20
68766;DHT22;55756;45.582;11.484;2022-10-16T06:53:42;18.20;77.20
68766;DHT22;55756;45.582;11.484;2022-10-16T06:56:09;18.40;76.60
68766;DHT22;55756;45.582;11.484;2022-10-16T06:58:35;18.60;76.00
68766;DHT22;55756;45.582;11.484;2022-10-16T07:01:01;18.60;75.30
68766;DHT22;55756;45.582;11.484;2022-10-16T07:03:26;18.90;74.80
68766;DHT22;55756;45.582;11.484;2022-10-16T07:05:52;19.10;74.10
68766;DHT22;55756;45.582;11.484;2022-10-16T07:08:18;19.20;72.90
68766;DHT22;55756;45.582;11.484;2022-10-16T07:10:43;19.10;72.40
68766;DHT22;55756;45.582;11.484;2022-10-16T07:13:09;19.20;72.80
68766;DHT22;55756;45.582;11.484;2022-10-16T07:15:38;19.60;72.10
68766;DHT22;55756;45.582;11.484;2022-10-16T07:18:04;20.00;70.80
68766;DHT22;55756;45.582;11.484;2022-10-16T07:20:30;20.40;69.20
68766;DHT22;55756;45.582;11.484;2022-10-16T07:22:55;20.60;67.90
68766;DHT22;55756;45.582;11.484;2022-10-16T07:25:21;20.70;67.90
68766;DHT22;55756;45.582;11.484;2022-10-16T07:27:47;20.80;67.70
68766;DHT22;55756;45.582;11.484;2022-10-16T07:30:12;21.20;67.30
68766;DHT22;55756;45.582;11.484;2022-10-16T07:32:38;21.80;65.60
68766;DHT22;55756;45.582;11.484;2022-10-16T07:35:04;21.80;65.20
68766;DHT22;55756;45.582;11.484;2022-10-16T07:37:30;21.70;65.30
68766;DHT22;55756;45.582;11.484;2022-10-16T07:39:55;21.50;64.80
68766;DHT22;55756;45.582;11.484;2022-10-16T07:42:21;21.40;64.30
68766;DHT22;55756;45.582;11.484;2022-10-16T07:44:47;21.20;64.20
68766;DHT22;55756;45.582;11.484;2022-10-16T07:47:13;21.20;64.40
68766;DHT22;55756;45.582;11.484;2022-10-16T07:49:38;21.20;63.50
68766;DHT22;55756;45.582;11.484;2022-10-16T07:52:04;21.40;62.80
68766;DHT22;55756;45.582;11.484;2022-10-16T07:54:30;21.60;63.00
68766;DHT22;55756;45.582;11.484;2022-10-16T07:56:55;22.00;62.40
68766;DHT22;55756;45.582;11.484;2022-10-16T07:59:21;22.30;61.70
68766;DHT22;55756;45.582;11.484;2022-10-16T08:01:48;22.50;61.40
68766;DHT22;55756;45.582;11.484;2022-10-16T08:04:14;22.90;59.70
68766;DHT22;55756;45.582;11.484;2022-10-16T08:06:39;23.00;59.00
68766;DHT22;55756;45.582;11.484;2022-10-16T08:09:06;22.90;59.20
68766;DHT22;55756;45.582;11.484;2022-10-16T08:11:31;22.80;58.70
68766;DHT22;55756;45.582;11.484;2022-10-16T08:13:57;22.70;58.70
68766;DHT22;55756;45.582;11.484;2022-10-16T08:16:23;22.70;58.80
68766;DHT22;55756;45.582;11.484;2022-10-16T08:18:49;23.10;58.10
68766;DHT22;55756;45.582;11.484;2022-10-16T08:21:17;23.20;57.60
68766;DHT22;55756;45.582;11.484;2022-10-16T08:23:43;23.20;57.60
68766;DHT22;55756;45.582;11.484;2022-10-16T08:26:10;23.30;57.70
68766;DHT22;55756;45.582;11.484;2022-10-16T08:28:36;23.40;57.60
68766;DHT22;55756;45.582;11.484;2022-10-16T08:31:06;23.40;56.90
68766;DHT22;55756;45.582;11.484;2022-10-16T08:33:32;23.50;56.70
68766;DHT22;55756;45.582;11.484;2022-10-16T08:36:00;23.00;56.80
68766;DHT22;55756;45.582;11.484;2022-10-16T08:38:26;22.90;58.00
68766;DHT22;55756;45.582;11.484;2022-10-16T08:40:52;23.10;57.80
68766;DHT22;55756;45.582;11.484;2022-10-16T08:48:30;23.20;56.40
68766;DHT22;55756;45.582;11.484;2022-10-16T08:51:00;23.40;56.30
68766;DHT22;55756;45.582;11.484;2022-10-16T08:53:49;23.30;56.10
68766;DHT22;55756;45.582;11.484;2022-10-16T08:56:12;22.90;56.60
68766;DHT22;55756;45.582;11.484;2022-10-16T08:58:38;22.50;58.20
68766;DHT22;55756;45.582;11.484;2022-10-16T09:01:04;22.80;58.30
68766;DHT22;55756;45.582;11.484;2022-10-16T09:11:03;23.70;54.90
68766;DHT22;55756;45.582;11.484;2022-10-16T09:13:36;23.70;55.50
68766;DHT22;55756;45.582;11.484;2022-10-16T09:21:18;23.20;56.80
68766;DHT22;55756;45.582;11.484;2022-10-16T09:23:44;23.50;56.30
68766;DHT22;55756;45.582;11.484;2022-10-16T09:26:11;23.90;56.10
68766;DHT22;55756;45.582;11.484;2022-10-16T09:28:38;24.10;55.10
68766;DHT22;55756;45.582;11.484;2022-10-16T09:31:04;24.20;54.90
68766;DHT22;55756;45.582;11.484;2022-10-16T09:33:33;24.30;53.90
68766;DHT22;55756;45.582;11.484;2022-10-16T09:36:00;23.70;55.10
68766;DHT22;55756;45.582;11.484;2022-10-16T09:40:55;23.60;56.20
68766;DHT22;55756;45.582;11.484;2022-10-16T09:45:53;23.70;56.10
68766;DHT22;55756;45.582;11.484;2022-10-16T09:48:19;23.50;56.40
68766;DHT22;55756;45.582;11.484;2022-10-16T09:50:55;23.10;57.30
68766;DHT22;55756;45.582;11.484;2022-10-16T09:53:20;23.10;57.50
68766;DHT22;55756;45.582;11.484;2022-10-16T09:55:50;22.70;58.70
68766;DHT22;55756;45.582;11.484;2022-10-16T09:58:16;22.50;59.50
68766;DHT22;55756;45.582;11.484;2022-10-16T10:00:42;22.50;59.50
68766;DHT22;55756;45.582;11.484;2022-10-16T10:03:19;22.60;59.30
68766;DHT22;55756;45.582;11.484;2022-10-16T10:05:49;22.70;59.10
68766;DHT22;55756;45.582;11.484;2022-10-16T10:08:16;23.00;58.70
68766;DHT22;55756;45.582;11.484;2022-10-16T10:10:43;23.20;57.70
68766;DHT22;55756;45.582;11.484;2022-10-16T10:13:22;23.20;58.00
68766;DHT22;55756;45.582;11.484;2022-10-16T10:15:48;23.40;57.50
68766;DHT22;55756;45.582;11.484;2022-10-16T10:18:20;22.90;58.40
68766;DHT22;55756;45.582;11.484;2022-10-16T10:20:58;22.60;59.00
68766;DHT22;55756;45.582;11.484;2022-10-16T10:23:25;22.90;58.80
68766;DHT22;55756;45.582;11.484;2022-10-16T10:25:53;23.10;58.20
68766;DHT22;55756;45.582;11.484;2022-10-16T10:36:08;22.90;58.20
68766;DHT22;55756;45.582;11.484;2022-10-16T10:43:50;23.40;57.30
68766;DHT22;55756;45.582;11.484;2022-10-16T10:46:28;23.60;57.00
68766;DHT22;55756;45.582;11.484;2022-10-16T10:53:57;23.70;56.90
68766;DHT22;55756;45.582;11.484;2022-10-16T10:58:57;23.50;57.00
68766;DHT22;55756;45.582;11.484;2022-10-16T11:04:12;23.60;57.30
68766;DHT22;55756;45.582;11.484;2022-10-16T11:06:48;23.40;57.40
68766;DHT22;55756;45.582;11.484;2022-10-16T11:09:38;23.30;58.00
68766;DHT22;55756;45.582;11.484;2022-10-16T11:12:05;23.30;57.70
68766;DHT22;55756;45.582;11.484;2022-10-16T11:14:40;23.40;57.80
68766;DHT22;55756;45.582;11.484;2022-10-16T11:17:10;23.50;58.10
68766;DHT22;55756;45.582;11.484;2022-10-16T11:19:39;23.60;57.50
68766;DHT22;55756;45.582;11.484;2022-10-16T11:27:12;24.10;55.90
68766;DHT22;55756;45.582;11.484;2022-10-16T11:29:45;23.90;56.10
68766;DHT22;55756;45.582;11.484;2022-10-16T11:35:22;23.80;56.80
68766;DHT22;55756;45.582;11.484;2022-10-16T11:37:49;23.80;56.20
68766;DHT22;55756;45.582;11.484;2022-10-16T11:40:32;23.60;57.20
68766;DHT22;55756;45.582;11.484;2022-10-16T11:43:17;23.80;56.50
68766;DHT22;55756;45.582;11.484;2022-10-16T11:46:04;23.90;56.70
68766;DHT22;55756;45.582;11.484;2022-10-16T11:48:35;24.20;56.40
68766;DHT22;55756;45.582;11.484;2022-10-16T11:54:26;24.20;55.60
68766;DHT22;55756;45.582;11.484;2022-10-16T11:56:49;24.10;55.90
68766;DHT22;55756;45.582;11.484;2022-10-16T11:59:33;23.70;56.80
68766;DHT22;55756;45.582;11.484;2022-10-16T12:04:39;23.70;56.80
68766;DHT22;55756;45.582;11.484;2022-10-16T12:07:12;23.80;57.20
68766;DHT22;55756;45.582;11.484;2022-10-16T12:09:39;23.90;56.30
68766;DHT22;55756;45.582;11.484;2022-10-16T12:12:23;23.70;56.90
68766;DHT22;55756;45.582;11.484;2022-10-16T12:14:59;23.60;57.30
68766;DHT22;55756;45.582;11.484;2022-10-16T12:17:27;23.60;57.40
68766;DHT22;55756;45.582;11.484;2022-10-16T12:20:26;23.50;57.60
68766;DHT22;55756;45.582;11.484;2022-10-16T12:22:52;23.60;57.80
68766;DHT22;55756;45.582;11.484;2022-10-16T12:25:41;23.40;57.80
68766;DHT22;55756;45.582;11.484;2022-10-16T12:30:40;23.40;57.70
68766;DHT22;55756;45.582;11.484;2022-10-16T12:33:15;23.50;57.50
68766;DHT22;55756;45.582;11.484;2022-10-16T12:35:45;23.50;57.30
68766;DHT22;55756;45.582;11.484;2022-10-16T12:40:46;23.90;56.40
68766;DHT22;55756;45.582;11.484;2022-10-16T12:45:45;24.20;55.40
68766;DHT22;55756;45.582;11.484;2022-10-16T12:48:21;24.20;55.30
68766;DHT22;55756;45.582;11.484;2022-10-16T12:50:47;24.20;55.60
68766;DHT22;55756;45.582;11.484;2022-10-16T12:53:20;24.10;55.60
68766;DHT22;55756;45.582;11.484;2022-10-16T12:55:51;24.20;55.70
68766;DHT22;55756;45.582;11.484;2022-10-16T13:03:48;24.00;56.20
68766;DHT22;55756;45.582;11.484;2022-10-16T13:06:29;23.80;57.00
68766;DHT22;55756;45.582;11.484;2022-10-16T13:11:35;24.20;56.70
68766;DHT22;55756;45.582;11.484;2022-10-16T13:22:01;24.10;56.80
68766;DHT22;55756;45.582;11.484;2022-10-16T13:29:59;23.80;57.00
68766;DHT22;55756;45.582;11.484;2022-10-16T13:32:26;23.90;57.20
68766;DHT22;55756;45.582;11.484;2022-10-16T13:34:51;23.70;57.70
68766;DHT22;55756;45.582;11.484;2022-10-16T13:37:19;23.70;57.90
68766;DHT22;55756;45.582;11.484;2022-10-16T13:39:45;23.70;57.60
68766;DHT22;55756;45.582;11.484;2022-10-16T13:42:18;23.80;57.10
68766;DHT22;55756;45.582;11.484;2022-10-16T13:44:47;23.80;57.30
68766;DHT22;55756;45.582;11.484;2022-10-16T13:47:17;23.90;57.40
68766;DHT22;55756;45.582;11.484;2022-10-16T13:49:43;23.90;57.50
68766;DHT22;55756;45.582;11.484;2022-10-16T13:52:17;23.90;57.70
68766;DHT22;55756;45.582;11.484;2022-10-16T13:54:43;23.90;57.60
68766;DHT22;55756;45.582;11.484;2022-10-16T13:57:12;23.90;57.70
68766;DHT22;55756;45.582;11.484;2022-10-16T13:59:38;23.90;57.60
68766;DHT22;55756;45.582;11.484;2022-10-16T14:02:15;23.80;57.70
68766;DHT22;55756;45.582;11.484;2022-10-16T14:04:42;23.80;58.00
68766;DHT22;55756;45.582;11.484;2022-10-16T14:07:14;23.80;57.90
68766;DHT22;55756;45.582;11.484;2022-10-16T14:09:47;23.80;57.70
68766;DHT22;55756;45.582;11.484;2022-10-16T14:12:13;23.80;57.80
68766;DHT22;55756;45.582;11.484;2022-10-16T14:14:42;23.70;57.70
68766;DHT22;55756;45.582;11.484;2022-10-16T14:17:15;23.70;57.80
68766;DHT22;55756;45.582;11.484;2022-10-16T14:19:45;23.70;58.00
68766;DHT22;55756;45.582;11.484;2022-10-16T14:22:29;23.70;58.00
68766;DHT22;55756;45.582;11.484;2022-10-16T14:24:55;23.70;57.80
68766;DHT22;55756;45.582;11.484;2022-10-16T14:27:34;23.70;58.10
68766;DHT22;55756;45.582;11.484;2022-10-16T14:32:42;23.60;58.60
68766;DHT22;55756;45.582;11.484;2022-10-16T14:35:24;23.60;58.50
68766;DHT22;55756;45.582;11.484;2022-10-16T14:37:51;23.40;58.70
68766;DHT22;55756;45.582;11.484;2022-10-16T14:40:17;23.40;58.60
68766;DHT22;55756;45.582;11.484;2022-10-16T14:42:43;23.40;58.50
68766;DHT22;55756;45.582;11.484;2022-10-16T14:45:09;23.30;58.80
68766;DHT22;55756;45.582;11.484;2022-10-16T14:47:37;23.30;58.80
68766;DHT22;55756;45.582;11.484;2022-10-16T14:50:13;23.30;58.80
68766;DHT22;55756;45.582;11.484;2022-10-16T14:52:38;23.30;58.80
68766;DHT22;55756;45.582;11.484;2022-10-16T14:55:05;23.30;58.90
68766;DHT22;55756;45.582;11.484;2022-10-16T14:57:31;23.30;58.80
68766;DHT22;55756;45.582;11.484;2022-10-16T14:59:59;23.30;58.90
68766;DHT22;55756;45.582;11.484;2022-10-16T15:02:32;23.20;59.10
68766;DHT22;55756;45.582;11.484;2022-10-16T15:05:04;23.20;59.10
68766;DHT22;55756;45.582;11.484;2022-10-16T15:07:31;23.20;59.10
68766;DHT22;55756;45.582;11.484;2022-10-16T15:09:57;23.20;59.30
68766;DHT22;55756;45.582;11.484;2022-10-16T15:12:23;23.10;59.40
68766;DHT22;55756;45.582;11.484;2022-10-16T15:14:49;23.10;59.60
68766;DHT22;55756;45.582;11.484;2022-10-16T15:17:15;23.00;59.80
68766;DHT22;55756;45.582;11.484;2022-10-16T15:19:40;23.00;60.30
68766;DHT22;55756;45.582;11.484;2022-10-16T15:22:06;23.10;60.20
68766;DHT22;55756;45.582;11.484;2022-10-16T15:24:32;23.00;60.30
68766;DHT22;55756;45.582;11.484;2022-10-16T15:26:57;23.00;60.50
68766;DHT22;55756;45.582;11.484;2022-10-16T15:29:23;22.90;60.50
68766;DHT22;55756;45.582;11.484;2022-10-16T15:31:49;22.90;60.80
68766;DHT22;55756;45.582;11.484;2022-10-16T15:34:15;22.80;61.50
68766;DHT22;55756;45.582;11.484;2022-10-16T15:36:40;22.80;61.60
68766;DHT22;55756;45.582;11.484;2022-10-16T15:39:13;22.70;62.10
68766;DHT22;55756;45.582;11.484;2022-10-16T15:41:40;22.70;62.60
68766;DHT22;55756;45.582;11.484;2022-10-16T15:44:06;22.70;63.00
68766;DHT22;55756;45.582;11.484;2022-10-16T15:46:32;22.50;63.40
68766;DHT22;55756;45.582;11.484;2022-10-16T15:48:59;22.50;63.90
68766;DHT22;55756;45.582;11.484;2022-10-16T15:51:25;22.40;64.20
68766;DHT22;55756;45.582;11.484;2022-10-16T15:53:57;22.30;64.40
68766;DHT22;55756;45.582;11.484;2022-10-16T15:56:24;22.30;65.00
68766;DHT22;55756;45.582;11.484;2022-10-16T15:58:53;22.20;65.00
68766;DHT22;55756;45.582;11.484;2022-10-16T16:01:19;22.10;65.20
68766;DHT22;55756;45.582;11.484;2022-10-16T16:03:45;22.00;65.40
68766;DHT22;55756;45.582;11.484;2022-10-16T16:06:11;21.90;66.10
68766;DHT22;55756;45.582;11.484;2022-10-16T16:08:38;21.80;66.40
68766;DHT22;55756;45.582;11.484;2022-10-16T16:11:08;21.80;66.60
68766;DHT22;55756;45.582;11.484;2022-10-16T16:13:33;21.70;67.00
68766;DHT22;55756;45.582;11.484;2022-10-16T16:15:59;21.60;67.20
68766;DHT22;55756;45.582;11.484;2022-10-16T16:18:25;21.50;67.90
68766;DHT22;55756;45.582;11.484;2022-10-16T16:20:51;21.40;68.10
68766;DHT22;55756;45.582;11.484;2022-10-16T16:23:17;21.40;68.00
68766;DHT22;55756;45.582;11.484;2022-10-16T16:25:43;21.40;67.70
68766;DHT22;55756;45.582;11.484;2022-10-16T16:28:08;21.30;67.70
68766;DHT22;55756;45.582;11.484;2022-10-16T16:30:36;21.30;67.90
68766;DHT22;55756;45.582;11.484;2022-10-16T16:33:02;21.10;68.20
68766;DHT22;55756;45.582;11.484;2022-10-16T16:35:28;21.00;68.50
68766;DHT22;55756;45.582;11.484;2022-10-16T16:37:53;20.90;68.80
68766;DHT22;55756;45.582;11.484;2022-10-16T16:40:19;20.80;69.30
68766;DHT22;55756;45.582;11.484;2022-10-16T16:42:47;20.70;69.50
68766;DHT22;55756;45.582;11.484;2022-10-16T16:45:13;20.70;69.50
68766;DHT22;55756;45.582;11.484;2022-10-16T16:47:39;20.50;70.00
68766;DHT22;55756;45.582;11.484;2022-10-16T16:50:05;20.50;70.20
68766;DHT22;55756;45.582;11.484;2022-10-16T16:52:32;20.40;70.60
68766;DHT22;55756;45.582;11.484;2022-10-16T16:54:58;20.30;70.60
68766;DHT22;55756;45.582;11.484;2022-10-16T16:57:24;20.30;70.70
68766;DHT22;55756;45.582;11.484;2022-10-16T16:59:50;20.20;70.70
68766;DHT22;55756;45.582;11.484;2022-10-16T17:02:16;20.10;70.90